createdAt,value
2022-09-07T00:02:23.125Z,17.53
2022-09-07T00:05:26.159Z,17.41
2022-09-07T00:08:29.201Z,17.55
2022-09-07T00:11:32.284Z,17.40
2022-09-07T00:14:36.529Z,17.31
2022-09-07T00:17:39.709Z,17.23
2022-09-07T00:20:43.801Z,17.24
2022-09-07T00:23:47.805Z,17.21
2022-09-07T00:26:50.417Z,17.03
2022-09-07T00:29:53.432Z,17.07
2022-09-07T00:32:56.091Z,16.91
2022-09-07T00:35:59.018Z,16.74
2022-09-07T00:39:01.944Z,16.74
2022-09-07T00:42:04.621Z,16.62
2022-09-07T00:45:07.315Z,16.70
2022-09-07T00:48:19.260Z,16.64
2022-09-07T00:51:24.759Z,16.89
2022-09-07T00:54:31.897Z,16.94
2022-09-07T00:57:34.440Z,16.94
2022-09-07T01:00:37.308Z,16.86
2022-09-07T01:03:41.469Z,16.75
2022-09-07T01:06:44.542Z,16.94
2022-09-07T01:09:47.992Z,17.12
2022-09-07T01:13:12.805Z,17.20
2022-09-07T01:20:02.499Z,17.29
2022-09-07T01:31:26.915Z,16.74
2022-09-07T03:39:24.856Z,15.98
2022-09-07T03:42:34.536Z,16.09
2022-09-07T03:45:40.970Z,16.21
2022-09-07T03:49:13.048Z,16.28
2022-09-07T03:52:35.172Z,16.38
2022-09-07T03:55:38.236Z,15.78
2022-09-07T03:58:40.976Z,15.56
2022-09-07T04:01:43.902Z,15.69
2022-09-07T04:04:46.829Z,15.67
2022-09-07T04:07:49.415Z,15.74
2022-09-07T04:10:52.206Z,15.73
2022-09-07T04:13:54.789Z,15.70
2022-09-07T04:16:57.905Z,15.84
2022-09-07T04:20:00.598Z,15.86
2022-09-07T04:23:04.572Z,16.01
2022-09-07T04:26:35.136Z,16.22
2022-09-07T04:29:59.476Z,16.37
2022-09-07T04:33:02.348Z,16.45
2022-09-07T04:36:08.238Z,16.63
2022-09-07T04:39:15.251Z,16.76
2022-09-07T04:42:18.301Z,16.80
2022-09-07T04:45:21.172Z,16.86
2022-09-07T04:48:25.149Z,16.61
2022-09-07T04:51:30.784Z,16.44
2022-09-07T04:54:40.914Z,16.29
2022-09-07T04:57:44.691Z,16.05
2022-09-07T05:00:47.839Z,16.13
2022-09-07T05:04:02.320Z,15.94
2022-09-07T05:07:05.187Z,16.35
2022-09-07T05:10:13.367Z,16.54
2022-09-07T05:13:36.661Z,16.80
2022-09-07T05:16:39.625Z,17.05
2022-09-07T05:19:54.988Z,17.23
2022-09-07T05:23:00.583Z,17.36
2022-09-07T05:26:04.829Z,17.47
2022-09-07T05:32:31.689Z,17.06
2022-09-07T05:35:34.839Z,17.07
2022-09-07T05:38:41.039Z,17.05
2022-09-07T05:41:44.037Z,17.18
2022-09-07T05:44:46.772Z,17.14
2022-09-07T05:47:51.032Z,17.19
2022-09-07T05:50:58.742Z,17.23
2022-09-07T05:54:04.676Z,17.28
2022-09-07T05:57:08.037Z,17.35
2022-09-07T06:00:13.499Z,17.37
2022-09-07T06:03:19.463Z,17.59
2022-09-07T06:06:26.730Z,17.80
2022-09-07T06:09:33.651Z,18.07
2022-09-07T06:28:23.287Z,18.53
2022-09-07T06:31:26.738Z,18.79
2022-09-07T06:34:29.885Z,18.95
2022-09-07T06:37:34.731Z,18.81
2022-09-07T06:40:37.478Z,19.24
2022-09-07T06:43:45.517Z,19.41
2022-09-07T06:47:06.201Z,19.58
2022-09-07T06:50:09.368Z,19.86
2022-09-07T06:56:36.639Z,20.23
2022-09-07T06:59:39.517Z,20.08
2022-09-07T07:02:42.680Z,19.97
2022-09-07T07:06:03.329Z,20.05
2022-09-07T07:16:46.231Z,20.31
2022-09-07T07:20:06.516Z,20.46
2022-09-07T07:23:16.168Z,20.55
2022-09-07T07:26:28.808Z,20.53
2022-09-07T07:29:32.054Z,20.70
2022-09-07T07:32:35.466Z,20.94
2022-09-07T07:35:39.528Z,21.12
2022-09-07T07:39:02.941Z,21.28
2022-09-07T07:42:10.987Z,21.01
2022-09-07T07:56:43.146Z,21.49
2022-09-07T08:00:07.297Z,21.63
2022-09-07T08:03:19.922Z,21.85
2022-09-07T08:06:23.390Z,21.75
2022-09-07T08:09:26.568Z,22.03
2022-09-07T08:12:31.389Z,22.41
2022-09-07T08:15:40.200Z,22.57
2022-09-07T08:18:48.541Z,22.72
2022-09-07T08:21:51.673Z,23.06
2022-09-07T08:24:57.202Z,23.07
2022-09-07T08:28:00.287Z,23.03
2022-09-07T08:31:10.566Z,23.26
2022-09-07T08:34:31.969Z,23.29
2022-09-07T08:37:35.123Z,23.32
2022-09-07T08:40:37.739Z,23.36
2022-09-07T08:43:48.858Z,23.39
2022-09-07T08:46:56.089Z,23.53
2022-09-07T08:50:12.155Z,23.64
2022-09-07T08:53:16.953Z,23.53
2022-09-07T08:56:22.717Z,23.71
2022-09-07T08:59:27.088Z,23.70
2022-09-07T09:02:32.626Z,23.68
2022-09-07T09:05:43.624Z,24.01
2022-09-07T09:08:49.291Z,23.60
2022-09-07T09:12:11.252Z,23.87
2022-09-07T09:15:23.613Z,23.80
2022-09-07T09:26:40.307Z,24.32
2022-09-07T09:33:14.314Z,24.36
2022-09-07T09:40:36.326Z,24.65
2022-09-07T09:43:41.706Z,24.55
2022-09-07T09:53:49.197Z,25.32
2022-09-07T09:56:53.367Z,25.30
2022-09-07T10:00:07.037Z,24.87
2022-09-07T10:06:49.026Z,25.25
2022-09-07T10:09:52.699Z,25.55
2022-09-07T10:12:56.083Z,25.54
2022-09-07T10:15:59.433Z,25.42
2022-09-07T10:19:04.465Z,25.22
2022-09-07T10:22:20.969Z,25.61
2022-09-07T10:25:31.377Z,25.72
2022-09-07T10:40:02.507Z,25.46
2022-09-07T10:43:25.290Z,25.96
2022-09-07T10:47:02.553Z,26.33
2022-09-07T10:53:41.356Z,26.85
2022-09-07T10:56:54.367Z,26.22
2022-09-07T11:00:09.493Z,25.88
2022-09-07T11:03:26.685Z,26.15
2022-09-07T11:06:33.651Z,26.45
2022-09-07T11:09:48.235Z,26.20
2022-09-07T11:12:50.956Z,26.28
2022-09-07T11:15:58.146Z,27.06
2022-09-07T11:19:35.808Z,26.29
2022-09-07T11:22:42.458Z,26.89
2022-09-07T11:25:58.380Z,27.27
2022-09-07T11:32:24.930Z,27.92
2022-09-07T11:35:28.010Z,28.63
2022-09-07T11:38:40.636Z,29.56
2022-09-07T11:41:48.173Z,27.88
2022-09-07T11:44:53.591Z,27.92
2022-09-07T11:47:59.337Z,28.89
2022-09-07T11:51:07.742Z,29.65
2022-09-07T11:54:20.017Z,30.91
2022-09-07T11:57:41.565Z,31.81
2022-09-07T12:01:05.169Z,31.88
2022-09-07T12:04:26.495Z,32.78
2022-09-07T12:07:32.296Z,31.28
2022-09-07T12:10:50.565Z,32.53
2022-09-07T12:13:55.827Z,33.21
2022-09-07T12:17:17.391Z,32.03
2022-09-07T12:20:20.750Z,33.23
2022-09-07T12:23:28.499Z,31.91
2022-09-07T12:26:34.309Z,33.95
2022-09-07T12:29:37.401Z,34.24
2022-09-07T12:32:58.063Z,36.18
2022-09-07T12:40:29.070Z,38.67
2022-09-07T14:34:35.645Z,32.63
2022-09-07T14:37:38.525Z,34.10
2022-09-07T14:40:41.175Z,34.04
2022-09-07T14:47:29.169Z,35.25
2022-09-07T14:50:45.704Z,35.00
2022-09-07T15:12:55.246Z,34.13
2022-09-07T15:15:59.383Z,34.44
2022-09-07T15:23:04.206Z,35.42
2022-09-07T15:26:07.637Z,34.10
2022-09-07T15:29:13.853Z,36.66
2022-09-07T15:32:24.511Z,35.42
2022-09-07T15:35:28.172Z,36.66
2022-09-07T15:42:59.436Z,35.57
2022-09-07T15:45:23.756Z,33.99
2022-09-07T15:48:26.963Z,33.59
2022-09-07T15:54:52.529Z,33.22
2022-09-07T15:58:09.041Z,34.06
2022-09-07T16:04:47.063Z,32.66
2022-09-07T16:11:18.509Z,33.47
2022-09-07T16:14:22.200Z,33.06
2022-09-07T16:17:34.773Z,33.09
2022-09-07T16:20:42.392Z,33.84
2022-09-07T16:23:47.460Z,33.43
2022-09-07T16:26:55.141Z,32.80
2022-09-07T16:30:02.576Z,31.49
2022-09-07T16:33:05.412Z,30.59
2022-09-07T16:36:10.397Z,30.45
2022-09-07T16:39:16.524Z,30.29
2022-09-07T16:42:19.723Z,30.50
2022-09-07T16:48:46.730Z,29.70
2022-09-07T16:51:49.808Z,29.20
2022-09-07T16:54:52.876Z,28.99
2022-09-07T17:01:21.911Z,28.26
2022-09-07T17:04:24.546Z,27.80
2022-09-07T17:07:27.521Z,27.48
2022-09-07T17:10:30.078Z,27.16
2022-09-07T17:13:33.570Z,26.72
2022-09-07T17:16:37.919Z,26.49
2022-09-07T17:19:42.445Z,26.23
2022-09-07T17:22:45.031Z,25.96
2022-09-07T17:25:48.972Z,25.74
2022-09-07T17:32:23.961Z,25.30
2022-09-07T17:35:30.763Z,25.19
2022-09-07T17:42:00.210Z,24.85
2022-09-07T17:45:04.443Z,24.68
2022-09-07T17:48:07.299Z,24.51
2022-09-07T17:51:10.511Z,24.29
2022-09-07T17:54:15.821Z,24.08
2022-09-07T17:57:20.438Z,24.04
2022-09-07T18:00:23.229Z,23.97
2022-09-07T18:03:31.314Z,23.99
2022-09-07T18:06:41.743Z,23.81
2022-09-07T18:09:49.190Z,23.79
2022-09-07T18:12:54.246Z,23.78
2022-09-07T18:15:57.392Z,23.73
2022-09-07T18:19:01.301Z,23.69
2022-09-07T18:22:06.861Z,23.67
2022-09-07T18:25:11.492Z,23.67
2022-09-07T18:31:37.556Z,23.74
2022-09-07T18:34:41.520Z,23.75
2022-09-07T18:37:44.516Z,23.54
2022-09-07T18:40:47.441Z,23.38
2022-09-07T18:43:50.307Z,23.59
2022-09-07T18:46:53.786Z,23.66
2022-09-07T18:49:57.289Z,23.64
2022-09-07T18:53:10.582Z,23.64
2022-09-07T18:56:20.313Z,23.66
2022-09-07T18:59:23.147Z,23.61
2022-09-07T19:02:26.133Z,23.57
2022-09-07T19:08:53.866Z,23.43
2022-09-07T19:11:56.750Z,23.32
2022-09-07T19:14:59.603Z,23.24
2022-09-07T19:18:05.064Z,23.18
2022-09-07T19:21:11.399Z,23.09
2022-09-07T19:24:18.367Z,23.06
2022-09-07T19:27:21.283Z,22.88
2022-09-07T19:30:24.600Z,22.77
2022-09-07T19:33:27.647Z,22.74
2022-09-07T19:36:32.736Z,22.61
2022-09-07T19:39:35.860Z,22.46
2022-09-07T19:42:39.518Z,22.39
2022-09-07T19:45:42.412Z,22.14
2022-09-07T19:48:46.576Z,22.30
2022-09-07T19:51:51.603Z,22.25
2022-09-07T19:54:55.178Z,22.30
2022-09-07T19:57:58.369Z,22.34
2022-09-07T20:01:12.442Z,22.30
2022-09-07T20:04:20.365Z,22.25
2022-09-07T20:07:23.927Z,22.20
2022-09-07T20:10:27.125Z,22.21
2022-09-07T20:13:30.809Z,22.31
2022-09-07T20:16:38.559Z,22.24
2022-09-07T20:19:41.462Z,22.16
2022-09-07T20:22:45.506Z,22.12
2022-09-07T20:25:58.177Z,22.07
2022-09-07T20:29:23.849Z,22.02
2022-09-07T20:32:24.638Z,21.98
2022-09-07T20:35:27.562Z,21.92
2022-09-07T20:38:30.158Z,21.84
2022-09-07T20:41:34.132Z,21.73
2022-09-07T20:44:36.709Z,21.65
2022-09-07T20:47:39.608Z,21.61
2022-09-07T20:50:42.287Z,21.60
2022-09-07T20:53:45.596Z,21.62
2022-09-07T20:56:48.130Z,21.65
2022-09-07T20:59:50.972Z,21.75
2022-09-07T21:02:53.779Z,21.87
2022-09-07T21:05:56.542Z,22.04
2022-09-07T21:08:59.506Z,22.21
2022-09-07T21:12:02.362Z,22.32
2022-09-07T21:15:05.084Z,22.36
2022-09-07T21:18:11.627Z,22.38
2022-09-07T21:21:21.128Z,22.37
2022-09-07T21:24:24.013Z,22.36
2022-09-07T21:27:26.531Z,22.28
2022-09-07T21:30:29.554Z,21.93
2022-09-07T21:33:32.784Z,21.91
2022-09-07T21:36:36.129Z,21.75
2022-09-07T21:39:38.704Z,21.63
2022-09-07T21:42:41.557Z,21.50
2022-09-07T21:45:44.555Z,21.39
2022-09-07T21:48:47.528Z,21.15
2022-09-07T21:51:50.004Z,21.09
2022-09-07T21:54:52.795Z,21.09
2022-09-07T21:57:55.389Z,21.08
2022-09-07T22:00:58.342Z,20.99
2022-09-07T22:04:02.366Z,21.00
2022-09-07T22:07:05.073Z,20.97
2022-09-07T22:10:09.643Z,20.97
2022-09-07T22:13:12.281Z,20.97
2022-09-07T22:16:16.665Z,20.95
2022-09-07T22:19:19.295Z,20.98
2022-09-07T22:22:23.051Z,20.98
2022-09-07T22:25:25.711Z,21.03
2022-09-07T22:28:30.005Z,20.95
2022-09-07T22:31:33.999Z,21.29
2022-09-07T22:34:36.832Z,21.41
2022-09-07T22:37:39.507Z,21.46
2022-09-07T22:40:42.437Z,21.36
2022-09-07T22:43:45.184Z,21.30
2022-09-07T22:46:48.252Z,21.30
2022-09-07T22:49:50.788Z,21.30
2022-09-07T22:52:53.388Z,21.34
2022-09-07T22:55:56.686Z,21.32
2022-09-07T22:59:00.785Z,21.23
2022-09-07T23:02:03.373Z,21.23
2022-09-07T23:05:06.691Z,21.19
2022-09-07T23:08:09.518Z,21.14
2022-09-07T23:11:12.280Z,21.03
2022-09-07T23:14:19.121Z,20.99
2022-09-07T23:17:22.050Z,20.93
2022-09-07T23:20:25.634Z,20.80
2022-09-07T23:23:28.783Z,20.64
2022-09-07T23:26:31.772Z,20.59
2022-09-07T23:29:34.602Z,20.48
2022-09-07T23:32:37.089Z,20.40
2022-09-07T23:35:39.854Z,20.34
2022-09-07T23:38:42.351Z,20.31
2022-09-07T23:41:44.886Z,20.26
2022-09-07T23:44:49.054Z,20.21
2022-09-07T23:47:51.741Z,20.17
2022-09-07T23:50:54.518Z,20.12
2022-09-07T23:53:57.334Z,20.09
2022-09-07T23:57:00.329Z,20.13
